createdAt,value
2018-09-11T00:01:24.711Z,4.70
2018-09-11T00:03:52.069Z,5.00
2018-09-11T00:06:19.382Z,4.67
2018-09-11T00:08:46.901Z,4.72
2018-09-11T00:11:14.255Z,5.10
2018-09-11T00:13:41.577Z,4.80
2018-09-11T00:16:08.879Z,5.12
2018-09-11T00:18:37.746Z,5.12
2018-09-11T00:21:05.271Z,4.78
2018-09-11T00:23:32.605Z,4.87
2018-09-11T00:25:59.931Z,5.30
2018-09-11T00:28:27.271Z,4.85
2018-09-11T00:30:54.591Z,5.15
2018-09-11T00:33:27.284Z,5.15
2018-09-11T00:35:54.636Z,4.90
2018-09-11T00:38:21.947Z,4.87
2018-09-11T00:40:49.183Z,5.15
2018-09-11T00:43:17.268Z,4.70
2018-09-11T00:45:44.649Z,5.10
2018-09-11T00:48:11.916Z,4.87
2018-09-11T00:50:39.216Z,4.58
2018-09-11T00:53:06.504Z,5.17
2018-09-11T00:55:33.832Z,4.55
2018-09-11T00:58:01.171Z,4.50
2018-09-11T01:00:28.444Z,4.33
2018-09-11T01:02:55.681Z,4.62
2018-09-11T01:05:22.968Z,5.15
2018-09-11T01:07:50.836Z,5.03
2018-09-11T01:10:18.198Z,4.75
2018-09-11T01:12:45.426Z,4.92
2018-09-11T01:15:13.198Z,4.67
2018-09-11T01:17:40.532Z,4.72
2018-09-11T01:20:09.513Z,4.95
2018-09-11T01:22:36.819Z,5.03
2018-09-11T01:25:04.199Z,5.05
2018-09-11T01:27:32.260Z,5.15
2018-09-11T01:29:59.650Z,4.87
2018-09-11T01:32:26.991Z,4.70
2018-09-11T01:34:55.360Z,4.47
2018-09-11T01:37:22.683Z,4.95
2018-09-11T01:39:49.994Z,4.62
2018-09-11T01:42:17.341Z,4.78
2018-09-11T01:44:44.628Z,4.60
2018-09-11T01:47:11.923Z,5.05
2018-09-11T01:49:39.677Z,4.90
2018-09-11T01:52:07.325Z,4.42
2018-09-11T01:54:34.599Z,4.60
2018-09-11T01:57:02.912Z,4.40
2018-09-11T01:59:30.215Z,4.80
2018-09-11T02:01:57.501Z,4.30
2018-09-11T02:04:24.800Z,4.65
2018-09-11T02:06:52.167Z,4.50
2018-09-11T02:09:19.586Z,4.37
2018-09-11T02:11:46.835Z,4.40
2018-09-11T02:14:14.140Z,4.33
2018-09-11T02:16:41.575Z,4.92
2018-09-11T02:19:08.891Z,4.60
2018-09-11T02:21:36.229Z,4.95
2018-09-11T02:24:03.892Z,4.50
2018-09-11T02:26:31.261Z,5.08
2018-09-11T02:28:58.527Z,4.70
2018-09-11T02:31:25.824Z,4.85
2018-09-11T02:34:03.564Z,5.03
2018-09-11T02:36:30.850Z,4.45
2018-09-11T02:38:58.741Z,4.45
2018-09-11T02:41:26.075Z,4.60
2018-09-11T02:43:53.406Z,4.53
2018-09-11T02:46:20.674Z,4.47
2018-09-11T02:48:47.911Z,4.45
2018-09-11T02:51:15.537Z,4.92
2018-09-11T02:53:42.878Z,4.50
2018-09-11T02:56:10.730Z,4.65
2018-09-11T02:58:38.056Z,4.78
2018-09-11T03:01:05.393Z,4.53
2018-09-11T03:03:32.737Z,5.03
2018-09-11T03:06:00.197Z,4.80
2018-09-11T03:08:29.601Z,4.80
2018-09-11T03:10:56.959Z,4.40
2018-09-11T03:13:24.426Z,4.58
2018-09-11T03:15:52.619Z,4.95
2018-09-11T03:18:19.874Z,5.17
2018-09-11T03:20:48.606Z,4.55
2018-09-11T03:23:15.881Z,4.72
2018-09-11T03:25:43.720Z,4.53
2018-09-11T03:28:11.053Z,4.58
2018-09-11T03:30:38.456Z,5.00
2018-09-11T03:33:06.136Z,5.08
2018-09-11T03:35:33.406Z,4.95
2018-09-11T03:38:00.739Z,5.05
2018-09-11T03:40:28.071Z,4.80
2018-09-11T03:42:55.762Z,5.00
2018-09-11T03:45:23.144Z,4.83
2018-09-11T03:47:50.459Z,5.35
2018-09-11T03:50:17.744Z,5.05
2018-09-11T03:52:45.199Z,5.08
2018-09-11T03:55:12.530Z,5.17
2018-09-11T03:57:39.862Z,5.25
2018-09-11T04:00:12.522Z,5.30
2018-09-11T04:02:43.556Z,5.40
2018-09-11T04:05:11.444Z,5.80
2018-09-11T04:07:38.959Z,5.62
2018-09-11T04:10:06.491Z,5.62
2018-09-11T04:12:36.860Z,6.17
2018-09-11T04:15:04.221Z,5.03
2018-09-11T04:17:39.531Z,5.45
2018-09-11T04:20:07.020Z,5.30
2018-09-11T04:22:35.392Z,5.40
2018-09-11T04:25:02.722Z,5.70
2018-09-11T04:27:30.388Z,5.67
2018-09-11T04:29:57.799Z,6.03
2018-09-11T04:32:26.237Z,5.47
2018-09-11T04:34:53.768Z,6.03
2018-09-11T04:37:21.275Z,6.35
2018-09-11T04:39:48.526Z,6.28
2018-09-11T04:42:16.128Z,5.62
2018-09-11T04:44:43.535Z,5.80
2018-09-11T04:47:10.848Z,6.85
2018-09-11T04:49:38.220Z,5.83
2018-09-11T04:52:05.570Z,6.37
2018-09-11T04:54:32.915Z,6.35
2018-09-11T04:57:00.211Z,7.10
2018-09-11T04:59:27.721Z,6.58
2018-09-11T05:01:55.179Z,5.80
2018-09-11T05:04:22.856Z,6.20
2018-09-11T05:06:50.296Z,6.40
2018-09-11T05:09:17.611Z,5.95
2018-09-11T05:11:44.911Z,6.50
2018-09-11T05:14:12.183Z,6.10
2018-09-11T05:16:39.479Z,5.78
2018-09-11T05:19:06.760Z,5.20
2018-09-11T05:21:46.852Z,5.58
2018-09-11T05:24:14.359Z,5.33
2018-09-11T05:26:43.525Z,5.25
2018-09-11T05:29:11.404Z,5.67
2018-09-11T05:31:38.731Z,5.42
2018-09-11T05:34:06.080Z,5.28
2018-09-11T05:36:33.637Z,5.12
2018-09-11T05:39:00.911Z,5.05
2018-09-11T05:41:28.182Z,5.37
2018-09-11T05:43:55.443Z,5.60
2018-09-11T05:46:22.745Z,5.47
2018-09-11T05:48:50.059Z,5.10
2018-09-11T05:51:17.387Z,5.30
2018-09-11T05:53:44.679Z,5.85
2018-09-11T05:56:12.004Z,5.35
2018-09-11T05:58:39.283Z,6.20
2018-09-11T06:01:07.297Z,6.00
2018-09-11T06:03:34.612Z,6.05
2018-09-11T06:06:01.895Z,5.92
2018-09-11T06:08:29.205Z,6.20
2018-09-11T06:10:58.261Z,6.00
2018-09-11T06:13:25.595Z,6.15
2018-09-11T06:15:53.848Z,5.45
2018-09-11T06:18:21.236Z,5.92
2018-09-11T06:20:48.628Z,6.20
2018-09-11T06:23:15.965Z,6.10
2018-09-11T06:25:43.338Z,5.70
2018-09-11T06:28:10.598Z,6.20
2018-09-11T06:30:37.883Z,5.78
2018-09-11T06:33:05.356Z,5.65
2018-09-11T06:35:32.712Z,5.67
2018-09-11T06:38:00.035Z,6.58
2018-09-11T06:40:27.316Z,5.55
2018-09-11T06:42:54.795Z,5.72
2018-09-11T06:45:22.024Z,5.75
2018-09-11T06:47:49.315Z,5.85
2018-09-11T06:50:16.566Z,5.70
2018-09-11T06:52:43.839Z,5.58
2018-09-11T06:55:11.098Z,4.97
2018-09-11T06:57:38.595Z,5.50
2018-09-11T07:00:05.904Z,6.00
2018-09-11T07:02:33.165Z,5.75
2018-09-11T07:05:00.431Z,5.67
2018-09-11T07:07:27.647Z,5.62
2018-09-11T07:09:55.047Z,5.62
2018-09-11T07:12:22.283Z,5.55
2018-09-11T07:15:04.006Z,5.75
2018-09-11T07:17:31.248Z,5.42
2018-09-11T07:19:58.704Z,6.05
2018-09-11T07:22:25.855Z,5.72
2018-09-11T07:24:53.150Z,5.70
2018-09-11T07:27:20.427Z,5.40
2018-09-11T07:29:48.105Z,5.40
2018-09-11T07:32:15.366Z,5.25
2018-09-11T07:34:42.615Z,6.05
2018-09-11T07:37:09.844Z,4.87
2018-09-11T07:39:37.097Z,4.40
2018-09-11T07:42:04.382Z,5.08
2018-09-11T07:45:09.628Z,4.20
2018-09-11T07:47:36.823Z,4.40
2018-09-11T07:50:04.380Z,4.10
2018-09-11T07:52:31.646Z,3.92
2018-09-11T07:54:58.956Z,3.90
2018-09-11T07:57:36.959Z,4.10
2018-09-11T08:00:04.724Z,4.00
2018-09-11T08:02:31.984Z,3.15
2018-09-11T08:04:59.256Z,3.52
2018-09-11T08:07:26.983Z,3.60
2018-09-11T08:09:54.496Z,3.37
2018-09-11T08:12:34.532Z,3.37
2018-09-11T08:15:01.819Z,3.45
2018-09-11T08:17:29.062Z,3.90
2018-09-11T08:19:59.157Z,3.17
2018-09-11T08:22:26.458Z,3.42
2018-09-11T08:25:00.214Z,3.15
2018-09-11T08:27:28.546Z,2.75
2018-09-11T08:29:56.117Z,3.08
2018-09-11T08:32:23.371Z,3.40
2018-09-11T08:34:50.630Z,2.90
2018-09-11T08:37:17.931Z,2.80
2018-09-11T08:39:45.231Z,2.70
2018-09-11T08:44:47.052Z,2.95
2018-09-11T08:47:14.375Z,2.72
2018-09-11T08:49:41.603Z,2.85
2018-09-11T08:52:08.888Z,2.80
2018-09-11T08:54:36.260Z,2.80
2018-09-11T08:57:03.545Z,2.70
2018-09-11T08:59:31.136Z,3.12
2018-09-11T09:01:58.586Z,2.65
2018-09-11T09:04:25.856Z,2.92
2018-09-11T09:06:53.170Z,2.65
2018-09-11T09:09:20.440Z,2.85
2018-09-11T09:11:49.363Z,2.70
2018-09-11T09:14:16.680Z,2.83
2018-09-11T09:16:44.709Z,6.35
2018-09-11T09:19:12.007Z,3.95
2018-09-11T09:21:39.276Z,2.90
2018-09-11T09:24:11.967Z,2.95
2018-09-11T09:26:39.360Z,2.75
2018-09-11T09:29:06.634Z,2.70
2018-09-11T09:31:38.036Z,2.42
2018-09-11T09:34:06.115Z,2.58
2018-09-11T09:36:33.605Z,2.65
2018-09-11T09:39:00.965Z,2.65
2018-09-11T09:41:28.168Z,2.83
2018-09-11T09:43:55.466Z,2.83
2018-09-11T09:46:22.736Z,2.85
2018-09-11T09:48:50.064Z,2.42
2018-09-11T09:51:17.324Z,2.62
2018-09-11T09:53:44.542Z,2.65
2018-09-11T09:56:12.095Z,2.47
2018-09-11T09:58:39.326Z,2.60
2018-09-11T10:01:12.344Z,6.20
2018-09-11T10:03:39.574Z,2.40
2018-09-11T10:06:06.823Z,2.35
2018-09-11T10:08:34.242Z,2.27
2018-09-11T10:11:01.501Z,2.15
2018-09-11T10:13:28.712Z,1.98
2018-09-11T10:15:59.840Z,2.20
2018-09-11T10:18:27.093Z,2.75
2018-09-11T10:20:54.320Z,2.50
2018-09-11T10:23:21.534Z,2.40
2018-09-11T10:25:48.812Z,2.17
2018-09-11T10:28:16.163Z,2.40
2018-09-11T10:30:43.395Z,2.45
2018-09-11T10:33:10.788Z,2.52
2018-09-11T10:35:38.112Z,2.50
2018-09-11T10:38:05.317Z,2.35
2018-09-11T10:40:32.715Z,2.12
2018-09-11T10:42:59.995Z,2.20
2018-09-11T10:45:27.875Z,2.12
2018-09-11T10:47:55.556Z,2.12
2018-09-11T10:50:22.795Z,2.20
2018-09-11T10:52:49.999Z,2.12
2018-09-11T10:55:17.243Z,2.10
2018-09-11T10:57:46.103Z,2.10
2018-09-11T11:00:13.399Z,2.50
2018-09-11T11:02:40.661Z,2.00
2018-09-11T11:05:08.027Z,2.25
2018-09-11T11:07:45.292Z,2.25
2018-09-11T11:10:12.501Z,2.50
2018-09-11T11:12:39.919Z,2.17
2018-09-11T11:15:07.243Z,2.40
2018-09-11T11:17:34.683Z,2.80
2018-09-11T11:20:01.972Z,2.30
2018-09-11T11:22:29.195Z,2.40
2018-09-11T11:24:56.396Z,2.10
2018-09-11T11:27:23.624Z,2.20
2018-09-11T11:29:50.840Z,2.30
2018-09-11T11:32:18.334Z,1.98
2018-09-11T11:35:03.832Z,2.02
2018-09-11T11:37:33.531Z,2.00
2018-09-11T11:40:01.365Z,1.98
2018-09-11T11:42:29.006Z,1.98
2018-09-11T11:44:56.204Z,1.80
2018-09-11T11:47:25.421Z,2.00
2018-09-11T11:49:53.019Z,2.00
2018-09-11T11:52:20.322Z,1.60
2018-09-11T11:54:48.106Z,2.00
2018-09-11T11:57:23.042Z,1.72
2018-09-11T11:59:50.367Z,1.60
2018-09-11T12:02:17.628Z,1.62
2018-09-11T12:04:44.878Z,1.60
2018-09-11T12:07:12.226Z,1.57
2018-09-11T12:09:39.910Z,1.55
2018-09-11T12:12:07.194Z,1.80
2018-09-11T12:14:34.404Z,1.80
2018-09-11T12:17:01.744Z,1.80
2018-09-11T12:19:28.925Z,1.82
2018-09-11T12:21:56.210Z,1.77
2018-09-11T12:24:23.410Z,1.85
2018-09-11T12:26:50.852Z,1.60
2018-09-11T12:29:18.021Z,1.70
2018-09-11T12:31:45.247Z,1.57
2018-09-11T12:34:12.595Z,1.65
2018-09-11T12:36:39.854Z,1.70
2018-09-11T12:39:07.282Z,1.72
2018-09-11T12:41:45.288Z,1.57
2018-09-11T12:44:12.540Z,1.55
2018-09-11T12:46:40.267Z,1.75
2018-09-11T12:49:07.122Z,1.82
2018-09-11T12:51:34.844Z,1.57
2018-09-11T12:54:02.187Z,1.57
2018-09-11T12:56:29.527Z,1.70
2018-09-11T12:58:56.855Z,1.45
2018-09-11T13:01:24.678Z,1.47
2018-09-11T13:03:52.263Z,1.65
2018-09-11T13:06:21.364Z,1.60
2018-09-11T13:08:48.823Z,1.60
2018-09-11T13:11:16.363Z,1.75
2018-09-11T13:13:43.763Z,1.67
2018-09-11T13:16:11.159Z,1.80
2018-09-11T13:18:40.602Z,1.80
2018-09-11T13:21:07.894Z,1.75
2018-09-11T13:23:35.212Z,1.60
2018-09-11T13:26:04.614Z,1.50
2018-09-11T13:28:33.468Z,1.50
2018-09-11T13:31:00.793Z,1.40
2018-09-11T13:33:28.113Z,1.50
2018-09-11T13:35:55.322Z,1.60
2018-09-11T13:38:22.567Z,1.47
2018-09-11T13:40:49.782Z,1.47
2018-09-11T13:43:31.447Z,1.60
2018-09-11T13:46:00.049Z,1.62
2018-09-11T13:48:27.335Z,1.70
2018-09-11T13:50:57.853Z,1.60
2018-09-11T13:53:25.125Z,1.70
2018-09-11T13:55:52.360Z,1.92
2018-09-11T13:58:19.642Z,1.75
2018-09-11T14:00:46.959Z,1.80
2018-09-11T14:03:14.421Z,1.95
2018-09-11T14:05:41.765Z,2.00
2018-09-11T14:08:09.704Z,2.37
2018-09-11T14:10:37.169Z,2.12
2018-09-11T14:13:04.479Z,2.00
2018-09-11T14:15:31.735Z,1.80
2018-09-11T14:17:59.004Z,2.00
2018-09-11T14:20:26.238Z,1.92
2018-09-11T14:22:53.456Z,1.87
2018-09-11T14:25:20.646Z,1.90
2018-09-11T14:27:47.935Z,1.87
2018-09-11T14:30:15.183Z,2.08
2018-09-11T14:32:43.667Z,2.40
2018-09-11T14:35:10.968Z,2.12
2018-09-11T14:37:38.195Z,2.20
2018-09-11T14:40:09.638Z,1.95
2018-09-11T14:42:36.862Z,1.82
2018-09-11T14:45:04.260Z,2.30
2018-09-11T14:47:37.080Z,2.25
2018-09-11T14:50:04.535Z,2.27
2018-09-11T14:52:31.745Z,2.20
2018-09-11T14:54:59.007Z,2.15
2018-09-11T14:57:26.276Z,2.37
2018-09-11T14:59:53.476Z,2.00
2018-09-11T15:02:21.052Z,2.05
2018-09-11T15:04:48.500Z,1.90
2018-09-11T15:07:15.795Z,2.00
2018-09-11T15:09:43.070Z,1.77
2018-09-11T15:12:10.273Z,2.17
2018-09-11T15:14:37.551Z,2.30
2018-09-11T15:17:04.912Z,2.22
2018-09-11T15:19:32.115Z,2.33
2018-09-11T15:21:59.323Z,2.52
2018-09-11T15:24:26.567Z,2.47
2018-09-11T15:26:54.689Z,2.30
2018-09-11T15:29:21.955Z,2.20
2018-09-11T15:31:49.179Z,2.37
2018-09-11T15:34:16.425Z,2.55
2018-09-11T15:36:43.776Z,2.90
2018-09-11T15:39:11.042Z,2.45
2018-09-11T15:41:38.291Z,2.60
2018-09-11T15:44:05.608Z,2.35
2018-09-11T15:46:32.847Z,2.80
2018-09-11T15:49:00.076Z,2.25
2018-09-11T15:51:27.343Z,2.70
2018-09-11T15:53:54.674Z,2.60
2018-09-11T15:56:21.961Z,2.60
2018-09-11T15:58:49.188Z,2.58
2018-09-11T16:01:16.403Z,2.45
2018-09-11T16:03:43.636Z,2.55
2018-09-11T16:06:10.874Z,2.80
2018-09-11T16:08:38.279Z,3.20
2018-09-11T16:11:05.587Z,2.75
2018-09-11T16:13:32.817Z,4.15
2018-09-11T16:16:00.080Z,11.88
2018-09-11T16:18:27.348Z,3.02
2018-09-11T16:20:54.709Z,3.80
2018-09-11T16:23:21.876Z,2.65
2018-09-11T16:25:49.479Z,3.22
2018-09-11T16:28:16.884Z,3.00
2018-09-11T16:30:44.124Z,2.55
2018-09-11T16:33:11.367Z,3.15
2018-09-11T16:35:38.623Z,2.58
2018-09-11T16:38:05.870Z,2.80
2018-09-11T16:40:33.133Z,3.30
2018-09-11T16:43:00.376Z,2.80
2018-09-11T16:45:27.629Z,3.33
2018-09-11T16:47:54.912Z,3.15
2018-09-11T16:50:22.168Z,3.30
2018-09-11T16:52:49.420Z,3.00
2018-09-11T16:55:16.665Z,2.87
2018-09-11T16:57:43.901Z,2.72
2018-09-11T17:00:11.155Z,3.47
2018-09-11T17:02:38.423Z,2.85
2018-09-11T17:05:05.713Z,2.83
2018-09-11T17:07:32.985Z,3.10
2018-09-11T17:10:00.236Z,3.25
2018-09-11T17:12:27.484Z,3.30
2018-09-11T17:14:54.926Z,2.62
2018-09-11T17:17:23.931Z,3.17
2018-09-11T17:19:52.039Z,2.67
2018-09-11T17:22:19.337Z,2.62
2018-09-11T17:24:46.600Z,3.00
2018-09-11T17:27:13.994Z,2.70
2018-09-11T17:29:41.325Z,2.65
2018-09-11T17:32:08.580Z,2.77
2018-09-11T17:34:35.823Z,3.50
2018-09-11T17:37:03.075Z,3.40
2018-09-11T17:39:30.320Z,2.95
2018-09-11T17:41:57.574Z,2.85
2018-09-11T17:44:24.810Z,2.70
2018-09-11T17:46:54.259Z,3.60
2018-09-11T17:49:21.514Z,3.02
2018-09-11T17:51:48.761Z,5.47
2018-09-11T17:54:16.058Z,3.55
2018-09-11T17:56:43.364Z,3.60
2018-09-11T17:59:10.605Z,3.35
2018-09-11T18:01:37.842Z,3.60
2018-09-11T18:04:05.114Z,4.70
2018-09-11T18:06:32.379Z,4.53
2018-09-11T18:08:59.685Z,4.15
2018-09-11T18:11:26.952Z,4.33
2018-09-11T18:13:54.326Z,4.55
2018-09-11T18:16:21.642Z,5.00
2018-09-11T18:18:48.924Z,3.58
2018-09-11T18:21:16.983Z,4.20
2018-09-11T18:23:44.286Z,3.00
2018-09-11T18:26:11.911Z,3.15
2018-09-11T18:28:39.175Z,3.10
2018-09-11T18:31:06.616Z,3.22
2018-09-11T18:33:35.402Z,3.40
2018-09-11T18:36:02.771Z,3.05
2018-09-11T18:38:30.205Z,2.98
2018-09-11T18:40:57.498Z,3.37
2018-09-11T18:43:24.918Z,3.45
2018-09-11T18:45:52.810Z,3.35
2018-09-11T18:48:20.696Z,4.67
2018-09-11T18:50:49.432Z,3.33
2018-09-11T18:53:21.729Z,3.00
2018-09-11T18:55:49.774Z,3.30
2018-09-11T18:58:17.272Z,3.20
2018-09-11T19:00:44.672Z,3.02
2018-09-11T19:03:12.468Z,2.98
2018-09-11T19:05:40.923Z,3.33
2018-09-11T19:08:09.889Z,3.60
2018-09-11T19:10:37.247Z,3.45
2018-09-11T19:13:04.960Z,3.33
2018-09-11T19:15:32.467Z,3.40
2018-09-11T19:18:00.396Z,3.58
2018-09-11T19:20:27.701Z,3.67
2018-09-11T19:22:54.939Z,3.72
2018-09-11T19:25:22.614Z,3.60
2018-09-11T19:27:51.825Z,3.92
2018-09-11T19:30:19.102Z,3.83
2018-09-11T19:32:46.541Z,3.77
2018-09-11T19:35:13.849Z,3.77
2018-09-11T19:37:41.096Z,3.75
2018-09-11T19:40:08.444Z,3.83
2018-09-11T19:42:35.756Z,3.95
2018-09-11T19:45:03.025Z,3.42
2018-09-11T19:47:30.339Z,3.62
2018-09-11T19:49:57.647Z,3.52
2018-09-11T19:52:25.268Z,3.90
2018-09-11T19:54:52.698Z,3.90
2018-09-11T19:57:20.165Z,3.65
2018-09-11T19:59:47.510Z,3.52
2018-09-11T20:02:14.853Z,3.80
2018-09-11T20:04:43.068Z,3.47
2018-09-11T20:07:10.349Z,3.87
2018-09-11T20:09:37.681Z,3.95
2018-09-11T20:12:05.223Z,3.83
2018-09-11T20:14:32.818Z,3.75
2018-09-11T20:17:03.139Z,3.50
2018-09-11T20:19:31.189Z,3.77
2018-09-11T20:21:58.479Z,3.40
2018-09-11T20:24:25.877Z,3.72
2018-09-11T20:26:53.237Z,4.15
2018-09-11T20:29:20.524Z,3.90
2018-09-11T20:31:47.824Z,3.58
2018-09-11T20:34:15.199Z,3.77
2018-09-11T20:36:42.483Z,4.08
2018-09-11T20:39:11.076Z,3.90
2018-09-11T20:41:38.672Z,3.90
2018-09-11T20:44:06.675Z,4.00
2018-09-11T20:46:34.064Z,3.42
2018-09-11T20:49:01.335Z,4.30
2018-09-11T20:51:28.584Z,4.10
2018-09-11T20:53:55.822Z,4.47
2018-09-11T20:56:23.072Z,4.55
2018-09-11T20:58:50.336Z,4.42
2018-09-11T21:01:18.356Z,4.30
2018-09-11T21:03:50.676Z,4.17
2018-09-11T21:06:17.948Z,4.30
2018-09-11T21:08:46.434Z,4.35
2018-09-11T21:11:13.746Z,5.30
2018-09-11T21:13:41.432Z,5.05
2018-09-11T21:16:08.663Z,4.92
2018-09-11T21:18:36.784Z,4.53
2018-09-11T21:21:04.169Z,4.58
2018-09-11T21:23:31.451Z,4.62
2018-09-11T21:25:58.732Z,4.05
2018-09-11T21:28:26.164Z,4.33
2018-09-11T21:30:53.420Z,3.95
2018-09-11T21:33:20.685Z,3.92
2018-09-11T21:35:47.948Z,4.15
2018-09-11T21:38:15.289Z,4.40
2018-09-11T21:40:42.543Z,4.45
2018-09-11T21:43:09.791Z,4.37
2018-09-11T21:45:37.121Z,4.62
2018-09-11T21:48:04.431Z,3.92
2018-09-11T21:50:31.698Z,3.62
2018-09-11T21:52:58.972Z,4.05
2018-09-11T21:55:26.265Z,4.12
2018-09-11T21:57:53.591Z,3.83
2018-09-11T22:00:21.076Z,4.10
2018-09-11T22:02:48.335Z,4.05
2018-09-11T22:05:15.583Z,4.53
2018-09-11T22:07:42.883Z,4.40
2018-09-11T22:10:11.727Z,4.72
2018-09-11T22:12:39.907Z,4.78
2018-09-11T22:15:08.211Z,4.70
2018-09-11T22:17:35.506Z,4.35
2018-09-11T22:20:02.972Z,4.53
2018-09-11T22:22:30.237Z,4.28
2018-09-11T22:24:57.559Z,4.05
2018-09-11T22:27:24.728Z,3.65
2018-09-11T22:30:06.243Z,4.37
2018-09-11T22:32:33.495Z,3.90
2018-09-11T22:35:00.796Z,3.98
2018-09-11T22:37:28.070Z,4.10
2018-09-11T22:39:55.339Z,4.35
2018-09-11T22:42:22.615Z,3.92
2018-09-11T22:44:49.890Z,3.80
2018-09-11T22:47:17.162Z,3.92
2018-09-11T22:49:44.406Z,3.70
2018-09-11T22:52:11.691Z,4.50
2018-09-11T22:54:39.009Z,4.35
2018-09-11T22:57:06.335Z,4.25
2018-09-11T22:59:33.919Z,4.90
2018-09-11T23:02:01.231Z,4.58
2018-09-11T23:04:28.515Z,4.60
2018-09-11T23:06:55.799Z,4.22
2018-09-11T23:09:23.103Z,4.40
2018-09-11T23:11:50.380Z,4.40
2018-09-11T23:14:17.666Z,4.30
2018-09-11T23:16:44.940Z,4.30
2018-09-11T23:19:12.218Z,4.67
2018-09-11T23:21:39.502Z,4.37
2018-09-11T23:24:06.748Z,4.30
2018-09-11T23:26:34.167Z,4.22
2018-09-11T23:29:01.427Z,4.17
2018-09-11T23:31:28.755Z,4.42
2018-09-11T23:33:56.023Z,4.53
2018-09-11T23:36:23.297Z,4.40
2018-09-11T23:38:50.554Z,4.78
2018-09-11T23:41:17.880Z,4.42
2018-09-11T23:43:45.772Z,4.80
2018-09-11T23:46:13.034Z,5.03
2018-09-11T23:48:40.299Z,4.60
2018-09-11T23:51:07.592Z,4.60
2018-09-11T23:53:34.831Z,4.62
2018-09-11T23:56:02.123Z,5.30
2018-09-11T23:58:29.465Z,4.50
